Time;durP1;ratioP1;P1;durP2;ratioP2;P2;SDS_P1;SDS_P2;PMS_P1;PMS_P2;Temp;Humidity;BMP_temperature;BMP_pressure;BME280_temperature;BME280_humidity;BME280_pressure;Samples;Min_cycle;Max_cycle;Signal;HPM_P1;HPM_P2
2021/04/03 00:00:19;;;;;;;34.65;18.52;;;;;;;9.08;100.00;97432.59;5013126;28;20021;-73
2021/04/03 00:02:46;;;;;;;25.77;14.20;;;;;;;8.96;100.00;97433.06;4995406;28;20160;-73
2021/04/03 00:05:13;;;;;;;24.20;14.55;;;;;;;8.96;100.00;97459.50;5013150;28;20038;-74
2021/04/03 00:07:39;;;;;;;26.45;16.00;;;;;;;8.91;100.00;97463.16;5028122;28;20039;-74
2021/04/03 00:10:11;;;;;;;24.45;15.65;;;;;;;8.93;100.00;97465.56;5042322;28;20021;-73
2021/04/03 00:12:37;;;;;;;21.42;13.40;;;;;;;8.92;100.00;97453.06;5035344;28;20089;-73
2021/04/03 00:15:03;;;;;;;21.15;14.88;;;;;;;8.86;100.00;97448.78;5032740;28;20037;-74
2021/04/03 00:17:28;;;;;;;22.38;14.25;;;;;;;8.90;100.00;97447.06;5032997;28;20025;-74
2021/04/03 00:19:55;;;;;;;21.80;14.20;;;;;;;8.98;100.00;97465.50;5019091;28;20032;-73
2021/04/03 00:22:22;;;;;;;24.20;13.43;;;;;;;8.87;100.00;97467.56;5033284;28;20031;-74
2021/04/03 00:24:48;;;;;;;18.88;12.77;;;;;;;8.84;100.00;97467.34;5033334;28;20437;-73
2021/04/03 00:27:13;;;;;;;20.60;13.02;;;;;;;8.87;100.00;97474.94;5036701;28;20067;-74
2021/04/03 00:29:38;;;;;;;18.45;13.50;;;;;;;8.87;100.00;97480.38;5024911;28;20033;-74
2021/04/03 00:32:04;;;;;;;23.02;13.43;;;;;;;8.86;100.00;97476.06;5013119;28;20033;-74
2021/04/03 00:34:29;;;;;;;20.70;13.00;;;;;;;8.89;100.00;97486.38;5013663;28;20068;-74
2021/04/03 00:36:55;;;;;;;20.60;12.85;;;;;;;8.82;100.00;97491.38;5013545;28;20088;-74
2021/04/03 00:39:20;;;;;;;18.60;12.55;;;;;;;8.99;100.00;97494.41;5013114;28;20490;-75
2021/04/03 00:41:45;;;;;;;17.83;12.02;;;;;;;8.98;100.00;97500.97;5013346;28;20030;-73
2021/04/03 00:44:11;;;;;;;22.58;12.38;;;;;;;8.95;100.00;97509.72;5013451;28;20133;-73
2021/04/03 00:46:36;;;;;;;20.33;13.55;;;;;;;9.03;100.00;97536.34;5013813;28;20025;-74
2021/04/03 00:49:05;;;;;;;25.17;12.98;;;;;;;9.00;100.00;97547.84;5013098;28;20029;-75
2021/04/03 00:51:30;;;;;;;25.60;15.75;;;;;;;9.11;100.00;97535.69;4995275;28;20037;-74
2021/04/03 00:53:56;;;;;;;27.67;16.60;;;;;;;8.93;100.00;97515.47;5013435;28;20109;-75
2021/04/03 00:56:21;;;;;;;21.17;13.73;;;;;;;8.82;100.00;97505.84;4996305;28;20030;-76
2021/04/03 00:58:47;;;;;;;22.80;13.43;;;;;;;8.93;100.00;97510.00;4995910;28;20032;-74
2021/04/03 01:01:12;;;;;;;25.05;14.32;;;;;;;8.81;100.00;97501.47;5013234;28;20026;-73
2021/04/03 01:03:38;;;;;;;23.45;13.27;;;;;;;8.75;100.00;97501.84;5012989;28;20026;-74
2021/04/03 01:06:05;;;;;;;25.95;14.43;;;;;;;8.66;100.00;97498.97;5042493;28;20136;-74
2021/04/03 01:08:30;;;;;;;22.70;14.10;;;;;;;8.79;100.00;97517.31;5052569;28;20036;-74
2021/04/03 01:10:56;;;;;;;24.48;13.82;;;;;;;8.86;100.00;97508.78;5052326;28;20075;-74
2021/04/03 01:13:50;;;;;;;26.00;16.05;;;;;;;8.80;100.00;97526.31;5034425;28;20226;-74
2021/04/03 01:16:28;;;;;;;21.48;14.88;;;;;;;8.77;100.00;97516.00;5034954;28;20443;-75
2021/04/03 01:19:31;;;;;;;23.98;14.57;;;;;;;8.84;100.00;97519.97;5052497;28;20355;-74
2021/04/03 01:22:18;;;;;;;22.83;14.38;;;;;;;9.04;100.00;97516.97;5052298;28;20124;-74
2021/04/03 01:25:11;;;;;;;24.73;13.52;;;;;;;9.06;100.00;97511.19;5052226;28;20040;-75
2021/04/03 01:28:09;;;;;;;25.70;15.00;;;;;;;8.87;100.00;97500.28;5051754;28;20036;-75
2021/04/03 01:30:35;;;;;;;24.13;13.32;;;;;;;8.87;100.00;97496.75;5048095;28;20139;-73
2021/04/03 01:33:08;;;;;;;19.15;13.35;;;;;;;8.76;100.00;97495.28;5051887;28;20026;-74
2021/04/03 01:35:47;;;;;;;23.48;14.60;;;;;;;8.75;100.00;97502.66;5033929;28;20029;-74
2021/04/03 01:38:34;;;;;;;19.33;12.77;;;;;;;8.68;100.00;97496.75;5024235;28;20010;-74
2021/04/03 01:41:01;;;;;;;21.83;14.20;;;;;;;8.62;100.00;97495.19;5032097;28;20363;-75
2021/04/03 01:43:30;;;;;;;22.98;14.30;;;;;;;8.60;100.00;97498.22;5031258;28;20032;-75
2021/04/03 01:45:56;;;;;;;23.17;14.32;;;;;;;8.60;100.00;97502.88;5052115;28;20033;-75
2021/04/03 01:48:23;;;;;;;17.98;12.38;;;;;;;8.51;100.00;97494.56;5051827;28;20037;-76
2021/04/03 01:50:49;;;;;;;23.33;13.73;;;;;;;8.41;100.00;97494.69;5051617;28;20493;-76
2021/04/03 01:53:17;;;;;;;22.33;13.13;;;;;;;8.33;100.00;97489.84;5051161;28;20064;-76
2021/04/03 01:55:44;;;;;;;16.75;11.40;;;;;;;8.24;100.00;97491.59;5051142;28;20029;-75
2021/04/03 01:58:10;;;;;;;24.80;13.32;;;;;;;8.33;100.00;97508.94;5051661;28;20049;-76
2021/04/03 02:00:36;;;;;;;25.42;13.45;;;;;;;8.42;100.00;97499.03;5051146;28;20025;-75
2021/04/03 02:03:04;;;;;;;20.70;12.50;;;;;;;8.44;100.00;97505.00;5051012;28;20031;-76
2021/04/03 02:05:30;;;;;;;26.05;13.38;;;;;;;8.19;100.00;97499.84;5051057;28;20031;-76
2021/04/03 02:07:57;;;;;;;23.58;11.98;;;;;;;8.12;100.00;97504.81;5051505;28;20044;-75
2021/04/03 02:10:26;;;;;;;18.52;12.23;;;;;;;8.14;100.00;97505.34;5051546;28;20450;-76
2021/04/03 02:12:52;;;;;;;21.40;11.88;;;;;;;8.23;100.00;97517.22;5051151;28;20027;-75
2021/04/03 02:15:18;;;;;;;18.27;11.80;;;;;;;8.23;100.00;97519.94;5051779;28;20561;-75
2021/04/03 02:17:49;;;;;;;15.93;10.15;;;;;;;8.17;100.00;97512.94;5042483;28;20025;-74
2021/04/03 02:20:15;;;;;;;17.60;10.60;;;;;;;8.23;100.00;97521.84;5031248;28;20064;-74
2021/04/03 02:22:42;;;;;;;19.92;9.82;;;;;;;8.21;100.00;97521.31;5031204;28;20080;-75
2021/04/03 02:25:17;;;;;;;12.55;7.57;;;;;;;8.06;100.00;97533.22;5031004;28;20052;-74
2021/04/03 02:27:44;;;;;;;11.82;8.32;;;;;;;8.03;100.00;97540.06;5027838;28;20099;-76
2021/04/03 02:30:15;;;;;;;12.50;8.52;;;;;;;7.89;100.00;97532.88;5029974;28;20030;-76
2021/04/03 02:32:51;;;;;;;9.65;6.28;;;;;;;8.04;100.00;97546.31;5030907;28;20036;-75
2021/04/03 02:35:18;;;;;;;10.18;7.78;;;;;;;8.26;100.00;97548.53;5031028;28;20030;-75
2021/04/03 02:37:48;;;;;;;13.18;8.13;;;;;;;8.21;100.00;97545.84;5030926;28;20524;-75
2021/04/03 02:40:18;;;;;;;17.83;8.73;;;;;;;8.31;100.00;97541.13;5012972;28;20386;-75
2021/04/03 02:43:04;;;;;;;11.60;7.03;;;;;;;8.22;100.00;97536.56;5030767;28;20537;-76
2021/04/03 02:45:35;;;;;;;13.13;8.25;;;;;;;8.14;100.00;97527.13;5031289;28;20056;-74
2021/04/03 02:48:09;;;;;;;17.15;6.35;;;;;;;8.22;100.00;97544.75;5013141;28;20033;-73
2021/04/03 02:50:41;;;;;;;8.95;5.75;;;;;;;8.08;100.00;97542.72;5030557;28;20042;-74
2021/04/03 02:53:10;;;;;;;8.55;5.80;;;;;;;7.94;100.00;97546.41;5032947;28;20061;-75
2021/04/03 02:55:38;;;;;;;9.02;5.45;;;;;;;7.96;100.00;97544.22;5048901;28;20462;-76
2021/04/03 02:58:05;;;;;;;5.93;4.50;;;;;;;8.03;100.00;97556.41;5050324;28;20476;-75
2021/04/03 03:00:31;;;;;;;7.60;5.15;;;;;;;7.95;100.00;97562.47;5050386;28;20017;-75
2021/04/03 03:02:58;;;;;;;10.43;5.40;;;;;;;7.90;100.00;97550.81;5032311;28;20029;-75
2021/04/03 03:05:24;;;;;;;7.10;4.38;;;;;;;7.88;100.00;97553.00;5050047;28;20029;-76
2021/04/03 03:07:50;;;;;;;5.65;4.75;;;;;;;7.87;100.00;97548.66;5056602;28;20024;-76
2021/04/03 03:10:18;;;;;;;6.40;4.80;;;;;;;7.83;100.00;97544.91;5053262;28;20037;-75
2021/04/03 03:12:49;;;;;;;7.15;4.25;;;;;;;7.77;100.00;97540.63;5051588;28;20036;-75
2021/04/03 03:15:17;;;;;;;9.00;6.57;;;;;;;7.75;100.00;97530.00;5020086;28;20034;-75
2021/04/03 03:17:44;;;;;;;7.53;5.13;;;;;;;7.64;100.00;97514.88;5012623;28;20052;-75
2021/04/03 03:20:12;;;;;;;10.85;6.28;;;;;;;7.64;100.00;97516.78;5030624;28;20037;-75
2021/04/03 03:22:37;;;;;;;12.15;6.57;;;;;;;7.64;100.00;97514.06;5030792;28;20037;-76
2021/04/03 03:25:05;;;;;;;13.38;7.65;;;;;;;7.58;100.00;97520.66;5038995;28;20032;-76
2021/04/03 03:27:30;;;;;;;10.80;6.68;;;;;;;7.68;100.00;97525.97;5032322;28;20041;-75
2021/04/03 03:30:02;;;;;;;13.50;7.25;;;;;;;7.55;100.00;97522.84;5050471;28;20043;-75
2021/04/03 03:32:30;;;;;;;9.38;4.95;;;;;;;7.38;100.00;97517.03;5047933;28;20468;-75
2021/04/03 03:34:56;;;;;;;4.28;3.05;;;;;;;7.37;100.00;97512.66;5012549;28;20033;-75
2021/04/03 03:37:25;;;;;;;3.90;2.90;;;;;;;7.36;100.00;97502.88;5024404;28;20025;-76
2021/04/03 03:39:52;;;;;;;3.17;2.25;;;;;;;7.29;100.00;97504.31;5028290;28;20037;-75
2021/04/03 03:42:19;;;;;;;2.35;1.88;;;;;;;7.40;100.00;97508.56;5029656;28;20033;-75
2021/04/03 03:44:45;;;;;;;2.15;1.88;;;;;;;7.33;99.69;97508.88;5029945;28;20034;-75
2021/04/03 03:47:10;;;;;;;3.70;2.78;;;;;;;7.44;100.00;97510.44;5005636;28;20025;-75
2021/04/03 03:49:36;;;;;;;3.65;2.45;;;;;;;7.29;100.00;97524.19;5029600;28;20049;-74
2021/04/03 03:52:02;;;;;;;3.92;2.03;;;;;;;7.17;99.30;97531.91;5029643;28;20037;-74
2021/04/03 03:54:28;;;;;;;2.80;2.05;;;;;;;7.19;98.10;97535.13;5011931;28;20023;-75
2021/04/03 03:56:53;;;;;;;4.28;2.28;;;;;;;7.17;99.41;97537.34;5030013;28;20503;-74
2021/04/03 03:59:18;;;;;;;4.60;2.25;;;;;;;7.24;100.00;97536.97;5029308;28;20526;-75
2021/04/03 04:01:47;;;;;;;2.80;1.73;;;;;;;7.32;99.72;97534.50;5029345;28;20025;-75
2021/04/03 04:04:12;;;;;;;1.63;1.15;;;;;;;7.40;97.89;97542.03;5011657;28;20062;-74
2021/04/03 04:06:38;;;;;;;1.13;0.90;;;;;;;7.27;96.19;97528.25;5012521;28;20096;-74
2021/04/03 04:09:04;;;;;;;1.30;1.20;;;;;;;7.25;95.75;97535.91;5033324;28;20072;-75
2021/04/03 04:11:30;;;;;;;1.00;0.90;;;;;;;7.36;97.85;97551.84;5032869;28;20036;-75
2021/04/03 04:13:55;;;;;;;1.92;1.70;;;;;;;7.26;99.60;97535.63;5032172;28;20030;-75
2021/04/03 04:16:21;;;;;;;1.23;1.00;;;;;;;7.37;100.00;97537.16;5033623;28;20021;-75
2021/04/03 04:18:46;;;;;;;1.30;0.85;;;;;;;7.29;98.54;97545.13;5014993;28;20355;-76
2021/04/03 04:21:12;;;;;;;1.48;1.38;;;;;;;7.32;98.23;97545.38;5032368;28;20532;-75
2021/04/03 04:23:37;;;;;;;2.72;1.58;;;;;;;7.22;99.47;97556.31;5032627;28;20059;-76
2021/04/03 04:26:03;;;;;;;1.67;1.30;;;;;;;7.34;100.00;97559.50;5015005;28;20474;-75
2021/04/03 04:28:28;;;;;;;2.65;1.98;;;;;;;7.24;100.00;97558.75;5033096;28;20029;-75
2021/04/03 04:30:54;;;;;;;1.70;1.38;;;;;;;7.22;100.00;97560.94;5032825;28;20033;-75
2021/04/03 04:33:19;;;;;;;2.50;1.80;;;;;;;7.27;100.00;97560.91;5032807;28;20181;-76
2021/04/03 04:35:45;;;;;;;1.88;1.77;;;;;;;7.41;100.00;97565.41;5032734;28;20583;-75
2021/04/03 04:38:10;;;;;;;2.05;1.20;;;;;;;7.36;99.50;97561.94;5032851;28;20026;-77
2021/04/03 04:40:36;;;;;;;1.58;1.30;;;;;;;7.39;99.32;97573.03;5015055;28;20025;-75
2021/04/03 04:43:01;;;;;;;2.47;1.67;;;;;;;7.31;99.27;97568.22;5032589;28;21035;-74
2021/04/03 04:45:27;;;;;;;2.08;1.85;;;;;;;7.33;99.18;97574.19;5036723;28;20049;-75
2021/04/03 04:47:52;;;;;;;3.92;1.92;;;;;;;7.28;99.03;97560.63;5055684;28;20963;-75
2021/04/03 04:50:18;;;;;;;1.20;1.00;;;;;;;7.41;98.84;97581.75;5051977;28;20049;-75
2021/04/03 04:52:43;;;;;;;2.20;2.00;;;;;;;7.52;98.60;97590.63;5052323;28;20021;-76
2021/04/03 04:55:09;;;;;;;4.18;2.90;;;;;;;7.61;99.00;97596.28;5052563;28;20025;-76
2021/04/03 04:57:35;;;;;;;3.30;1.98;;;;;;;7.52;97.34;97591.44;5034198;28;20025;-75
2021/04/03 05:00:01;;;;;;;1.42;1.23;;;;;;;7.43;97.98;97590.44;5052168;28;20435;-76
2021/04/03 05:02:26;;;;;;;2.22;1.88;;;;;;;7.58;99.67;97586.75;5052043;28;20183;-75
2021/04/03 05:04:52;;;;;;;4.57;1.90;;;;;;;7.53;98.39;97600.41;5052554;28;20529;-75
2021/04/03 05:07:17;;;;;;;3.05;2.40;;;;;;;7.54;99.00;97602.88;5052665;28;20078;-73
2021/04/03 05:09:43;;;;;;;2.33;2.13;;;;;;;7.54;97.77;97600.16;5053067;28;20393;-74
2021/04/03 05:12:09;;;;;;;2.92;2.08;;;;;;;7.60;97.83;97597.38;5052754;28;20070;-75
2021/04/03 05:14:34;;;;;;;3.15;2.20;;;;;;;7.77;98.11;97606.75;5053085;28;20478;-76
2021/04/03 05:16:59;;;;;;;3.58;2.97;;;;;;;7.72;97.29;97608.69;5034819;28;20032;-75
2021/04/03 05:19:25;;;;;;;4.05;2.50;;;;;;;7.67;98.09;97593.25;5051083;28;20116;-77
2021/04/03 05:21:51;;;;;;;5.10;2.88;;;;;;;7.77;97.91;97611.41;5048289;28;20025;-74
2021/04/03 05:24:16;;;;;;;4.68;3.15;;;;;;;7.83;97.87;97616.50;5031165;28;20044;-76
2021/04/03 05:26:41;;;;;;;3.63;2.67;;;;;;;7.79;98.58;97614.63;5037686;28;20021;-77
2021/04/03 05:29:07;;;;;;;3.13;2.67;;;;;;;7.88;98.52;97621.09;5041691;28;20025;-76
2021/04/03 05:31:32;;;;;;;6.07;3.50;;;;;;;7.81;98.42;97631.50;5032636;28;20025;-79
2021/04/03 05:33:58;;;;;;;4.20;2.95;;;;;;;7.96;100.00;97631.34;5031806;28;20017;-75
2021/04/03 05:36:23;;;;;;;3.78;3.38;;;;;;;7.83;97.59;97632.81;5031686;28;20057;-77
2021/04/03 05:38:49;;;;;;;6.78;3.53;;;;;;;7.75;97.03;97638.06;5031540;28;20033;-76
2021/04/03 05:41:14;;;;;;;6.03;3.80;;;;;;;7.82;97.71;97630.41;5031459;28;20482;-77
2021/04/03 05:43:40;;;;;;;7.80;3.47;;;;;;;7.56;96.43;97616.19;5031383;28;20390;-76
2021/04/03 05:46:06;;;;;;;3.67;2.90;;;;;;;7.71;97.29;97639.72;5012971;28;20017;-74
2021/04/03 05:48:33;;;;;;;6.55;4.25;;;;;;;7.74;97.88;97656.31;5031622;28;20053;-77
2021/04/03 05:51:00;;;;;;;10.77;3.92;;;;;;;7.64;97.05;97647.44;5031229;28;20076;-76
2021/04/03 05:53:26;;;;;;;6.10;4.07;;;;;;;7.73;95.28;97656.63;5031074;28;20029;-74
2021/04/03 05:55:57;;;;;;;6.35;3.97;;;;;;;7.59;95.72;97655.63;5031501;28;20079;-78
2021/04/03 05:58:22;;;;;;;4.82;3.75;;;;;;;7.63;96.42;97662.13;5031695;28;20104;-76
2021/04/03 06:00:52;;;;;;;6.53;4.47;;;;;;;7.46;96.07;97663.31;5049193;28;20124;-75
2021/04/03 06:03:17;;;;;;;5.53;3.80;;;;;;;7.61;97.67;97670.59;5050966;28;20401;-75
2021/04/03 06:05:44;;;;;;;6.82;3.75;;;;;;;7.59;95.95;97669.22;5050948;28;20021;-74
2021/04/03 06:08:10;;;;;;;5.07;3.80;;;;;;;7.78;96.12;97672.91;5040822;28;20036;-75
2021/04/03 06:10:36;;;;;;;5.65;4.07;;;;;;;7.72;95.76;97672.13;5031044;28;20021;-76
2021/04/03 06:13:01;;;;;;;7.55;4.97;;;;;;;7.69;94.77;97671.88;5013010;28;20474;-73
2021/04/03 06:15:27;;;;;;;7.55;5.07;;;;;;;7.78;96.11;97695.50;5031076;28;20029;-76
2021/04/03 06:17:59;;;;;;;4.95;3.30;;;;;;;7.70;91.93;97681.69;5012999;28;20064;-76
2021/04/03 06:20:34;;;;;;;11.23;7.88;;;;;;;7.67;93.50;97688.50;5030648;28;20057;-75
2021/04/03 06:23:01;;;;;;;5.18;4.18;;;;;;;7.68;91.74;97684.66;5012794;28;20440;-76
2021/04/03 06:25:27;;;;;;;9.48;4.25;;;;;;;7.69;93.30;97674.59;5027423;28;20029;-76
2021/04/03 06:28:28;;;;;;;9.27;5.80;;;;;;;7.76;89.30;97686.81;5049883;28;20029;-77
2021/04/03 06:31:12;;;;;;;19.95;14.07;;;;;;;7.83;91.95;97686.50;4998001;28;20139;-75
2021/04/03 06:33:37;;;;;;;4.20;3.78;;;;;;;7.70;89.38;97681.69;5015169;28;20381;-78
2021/04/03 06:36:06;;;;;;;3.95;3.55;;;;;;;7.65;88.91;97689.88;5030158;28;20033;-76
2021/04/03 06:38:32;;;;;;;4.90;4.07;;;;;;;7.83;89.79;97686.50;5033169;28;20082;-75
2021/04/03 06:41:16;;;;;;;6.57;4.13;;;;;;;8.40;88.61;97697.44;5037344;28;20017;-74
2021/04/03 06:43:41;;;;;;;4.82;3.58;;;;;;;8.55;85.72;97694.53;5036535;28;20036;-75
2021/04/03 06:46:27;;;;;;;4.35;2.95;;;;;;;8.66;84.28;97695.25;5038809;28;20013;-75
2021/04/03 06:48:53;;;;;;;4.40;3.80;;;;;;;8.69;85.03;97696.59;5034036;28;20115;-76
2021/04/03 06:51:21;;;;;;;9.18;3.85;;;;;;;8.92;85.23;97690.34;5021953;28;20486;-75
2021/04/03 06:53:49;;;;;;;4.57;3.10;;;;;;;9.14;82.81;97702.34;5020776;28;20088;-75
2021/04/03 06:56:16;;;;;;;4.45;3.15;;;;;;;8.99;81.36;97699.00;5035895;28;20506;-74
2021/04/03 06:58:45;;;;;;;6.93;3.88;;;;;;;8.97;82.40;97695.72;5039278;28;20033;-76
2021/04/03 07:01:15;;;;;;;6.22;4.07;;;;;;;9.08;82.52;97699.97;5021608;28;20664;-76
2021/04/03 07:03:43;;;;;;;6.32;3.45;;;;;;;9.22;79.92;97700.84;5035944;28;20026;-74
2021/04/03 07:06:16;;;;;;;7.80;5.57;;;;;;;9.51;79.76;97701.56;5040743;28;20021;-78
2021/04/03 07:08:43;;;;;;;6.25;4.47;;;;;;;9.69;76.66;97710.84;5033794;28;20040;-76
2021/04/03 07:11:09;;;;;;;6.03;4.60;;;;;;;9.62;76.50;97719.41;5039316;28;20549;-75
2021/04/03 07:13:35;;;;;;;6.15;5.38;;;;;;;9.05;77.09;97708.72;5037937;28;20532;-75
2021/04/03 07:16:03;;;;;;;10.52;6.20;;;;;;;8.85;79.25;97715.22;5044509;28;20029;-74
2021/04/03 07:18:29;;;;;;;6.40;5.65;;;;;;;8.78;79.75;97703.03;5040760;28;20029;-75
2021/04/03 07:20:55;;;;;;;7.80;5.10;;;;;;;8.67;80.03;97698.81;5039894;28;20044;-76
2021/04/03 07:23:21;;;;;;;7.18;5.32;;;;;;;8.75;81.27;97709.06;5038219;28;20036;-76
2021/04/03 07:25:51;;;;;;;7.35;5.35;;;;;;;8.53;81.15;97707.66;5021166;28;20108;-75
2021/04/03 07:28:20;;;;;;;8.18;6.55;;;;;;;8.42;80.98;97719.78;5038002;28;20108;-74
2021/04/03 07:30:47;;;;;;;7.20;5.75;;;;;;;8.41;82.39;97712.69;5041309;28;20025;-74
2021/04/03 07:33:16;;;;;;;9.13;6.10;;;;;;;8.61;82.85;97717.13;5038352;28;20490;-76
2021/04/03 07:35:52;;;;;;;7.47;6.18;;;;;;;8.51;82.07;97706.34;5041741;28;20025;-75
2021/04/03 07:38:26;;;;;;;11.07;6.65;;;;;;;8.84;85.95;97723.69;5035228;28;20056;-79
2021/04/03 07:41:16;;;;;;;9.35;6.90;;;;;;;8.49;88.01;97722.97;5030350;28;20022;-76
2021/04/03 07:43:47;;;;;;;9.75;7.70;;;;;;;8.22;87.58;97725.38;5030905;28;20059;-79
2021/04/03 07:46:23;;;;;;;14.90;8.77;;;;;;;8.11;88.48;97729.28;5062018;28;20012;-86
2021/04/03 07:48:54;;;;;;;9.55;7.40;;;;;;;7.95;88.33;97719.59;5034525;28;20398;-84
2021/04/03 07:51:22;;;;;;;14.60;7.47;;;;;;;8.02;90.70;97717.34;5042630;28;20037;-86
2021/04/03 07:53:48;;;;;;;10.50;7.80;;;;;;;8.03;89.97;97721.72;5032510;28;20105;-85
2021/04/03 07:56:21;;;;;;;10.40;8.02;;;;;;;8.04;91.57;97726.88;5032088;28;20025;-82
2021/04/03 07:58:57;;;;;;;10.80;7.63;;;;;;;7.93;90.22;97724.50;5035252;28;20068;-87
2021/04/03 08:01:24;;;;;;;;;;;;;;;7.80;88.89;97727.91;5036117;28;20037;-86
2021/04/03 08:03:57;;;;;;;12.20;7.97;;;;;;;7.82;91.80;97731.13;5034409;28;19913;-87
2021/04/03 08:06:42;;;;;;;10.10;6.60;;;;;;;7.75;91.22;97738.78;5035568;28;20025;-85
2021/04/03 08:09:17;;;;;;;10.90;7.15;;;;;;;7.92;91.16;97744.69;5031671;28;20482;-84
2021/04/03 08:11:47;;;;;;;8.93;6.28;;;;;;;7.87;89.45;97747.44;5032362;28;20167;-82
2021/04/03 08:14:15;;;;;;;12.13;7.10;;;;;;;7.71;90.12;97743.16;5032298;28;20823;-83
2021/04/03 08:16:41;;;;;;;10.10;6.70;;;;;;;7.95;89.77;97734.03;5015838;28;20021;-82
2021/04/03 08:19:09;;;;;;;11.10;6.00;;;;;;;8.01;89.84;97748.44;5034135;28;20025;-79
2021/04/03 08:21:46;;;;;;;8.75;6.18;;;;;;;7.84;86.05;97743.38;5032400;28;20136;-80
2021/04/03 08:24:13;;;;;;;7.05;5.50;;;;;;;8.03;89.50;97746.22;5030413;28;20033;-79
2021/04/03 08:26:40;;;;;;;8.30;5.35;;;;;;;8.04;89.48;97742.41;5013395;28;20025;-78
2021/04/03 08:29:06;;;;;;;8.05;5.30;;;;;;;7.97;88.22;97731.03;5031197;28;20100;-77
2021/04/03 08:31:33;;;;;;;15.05;9.75;;;;;;;8.14;89.28;97736.06;5032103;28;20192;-78
2021/04/03 08:34:02;;;;;;;10.73;6.22;;;;;;;8.25;89.70;97737.59;5031180;28;20360;-76
2021/04/03 08:36:32;;;;;;;19.95;10.48;;;;;;;8.38;87.62;97742.44;5030406;28;20040;-79
2021/04/03 08:39:05;;;;;;;11.88;7.00;;;;;;;8.19;87.16;97757.81;5030782;28;20063;-77
2021/04/03 08:41:33;;;;;;;25.27;9.45;;;;;;;8.18;87.42;97751.53;5028881;28;20033;-76
2021/04/03 08:43:58;;;;;;;17.45;8.02;;;;;;;8.15;87.36;97760.28;5030801;28;20072;-75
2021/04/03 08:46:28;;;;;;;12.82;8.30;;;;;;;8.05;85.92;97749.47;5030456;28;20021;-75
2021/04/03 08:48:58;;;;;;;8.27;5.35;;;;;;;8.03;87.11;97768.00;5031170;28;20117;-75
2021/04/03 08:51:25;;;;;;;8.07;4.75;;;;;;;8.04;85.09;97772.38;5027112;28;20132;-76
2021/04/03 08:53:53;;;;;;;7.32;3.97;;;;;;;8.17;85.19;97776.38;5029517;28;20026;-78
2021/04/03 08:56:35;;;;;;;9.02;5.40;;;;;;;8.41;84.83;97775.38;5030250;28;20478;-77
2021/04/03 08:59:05;;;;;;;6.10;4.10;;;;;;;8.61;81.83;97768.94;5029648;28;20030;-76
2021/04/03 09:01:34;;;;;;;6.72;4.47;;;;;;;8.56;85.17;97753.44;5030143;28;20359;-75
2021/04/03 09:04:05;;;;;;;7.65;5.05;;;;;;;8.85;85.26;97768.97;5031018;28;20525;-75
2021/04/03 09:06:39;;;;;;;6.43;4.57;;;;;;;9.31;83.00;97772.78;5030701;28;20500;-76
2021/04/03 09:09:09;;;;;;;4.40;3.80;;;;;;;9.31;81.53;97767.34;5029683;28;20048;-75
2021/04/03 09:11:34;;;;;;;8.02;4.93;;;;;;;9.51;81.84;97772.56;5027269;28;20006;-73
2021/04/03 09:14:00;;;;;;;6.68;5.43;;;;;;;9.63;76.96;97763.91;5030411;28;20138;-76
2021/04/03 09:16:35;;;;;;;8.35;6.00;;;;;;;9.75;77.68;97774.41;5013454;28;20022;-77
2021/04/03 09:19:00;;;;;;;10.10;6.43;;;;;;;9.57;73.90;97774.09;5030295;28;20028;-74
2021/04/03 09:21:26;;;;;;;9.90;6.90;;;;;;;9.51;77.00;97760.81;5029835;28;20045;-74
2021/04/03 09:23:52;;;;;;;13.77;7.53;;;;;;;9.54;77.03;97763.78;5029135;28;20017;-76
2021/04/03 09:26:35;;;;;;;8.25;5.70;;;;;;;10.01;75.69;97762.00;5025359;28;20425;-74
2021/04/03 09:29:09;;;;;;;12.65;6.25;;;;;;;10.41;74.96;97764.13;5026552;28;20025;-76
2021/04/03 09:31:42;;;;;;;23.05;7.15;;;;;;;10.31;69.75;97768.94;5027319;28;20038;-73
2021/04/03 09:34:08;;;;;;;8.48;6.25;;;;;;;10.22;72.23;97763.34;5029219;28;20047;-74
2021/04/03 09:36:51;;;;;;;8.93;6.30;;;;;;;10.44;71.27;97766.28;5029233;28;20021;-74
2021/04/03 09:39:19;;;;;;;8.27;5.60;;;;;;;10.51;68.89;97772.16;5017575;28;20037;-76
2021/04/03 09:41:47;;;;;;;11.05;6.85;;;;;;;10.60;70.62;97764.91;5030397;28;20033;-75
2021/04/03 09:44:14;;;;;;;14.20;8.65;;;;;;;10.52;69.36;97770.25;5028115;28;20036;-76
2021/04/03 09:46:40;;;;;;;7.47;4.78;;;;;;;9.89;70.43;97778.03;5029125;28;20601;-74
2021/04/03 09:49:08;;;;;;;8.05;4.75;;;;;;;9.58;68.77;97762.09;5029734;28;20104;-75
2021/04/03 09:51:33;;;;;;;7.80;4.68;;;;;;;9.43;69.99;97770.44;5027922;28;20036;-75
2021/04/03 09:53:59;;;;;;;8.50;6.28;;;;;;;9.48;71.24;97756.75;5028277;28;20021;-76
2021/04/03 09:56:24;;;;;;;13.75;7.93;;;;;;;9.73;69.48;97747.41;5027836;28;20021;-76
2021/04/03 09:58:49;;;;;;;8.77;5.30;;;;;;;10.06;68.37;97746.34;5027850;28;20560;-77
2021/04/03 10:01:15;;;;;;;11.50;6.30;;;;;;;10.48;68.59;97755.56;5028446;28;20043;-76
2021/04/03 10:03:40;;;;;;;6.82;4.97;;;;;;;10.47;65.57;97757.47;5031621;28;20022;-76
2021/04/03 10:06:06;;;;;;;8.65;5.68;;;;;;;10.82;66.83;97752.47;5030011;28;20055;-76
2021/04/03 10:08:31;;;;;;;7.68;5.68;;;;;;;10.67;65.85;97759.88;5027817;28;20527;-77
2021/04/03 10:10:57;;;;;;;11.95;5.93;;;;;;;10.82;66.83;97750.56;5027811;28;20108;-74
2021/04/03 10:13:23;;;;;;;7.38;5.03;;;;;;;11.03;69.22;97764.66;5009139;28;20040;-75
2021/04/03 10:15:48;;;;;;;8.32;5.57;;;;;;;11.09;64.55;97758.78;5030266;28;20029;-76
2021/04/03 10:18:15;;;;;;;6.97;4.60;;;;;;;11.05;64.23;97755.06;5029321;28;20071;-75
2021/04/03 10:20:43;;;;;;;7.22;4.88;;;;;;;11.04;65.77;97763.56;5029334;28;20017;-77
2021/04/03 10:23:08;;;;;;;7.50;5.00;;;;;;;10.63;64.54;97736.94;5028261;28;20033;-75
2021/04/03 10:25:33;;;;;;;6.95;4.97;;;;;;;11.05;64.11;97763.25;5028840;28;20022;-76
2021/04/03 10:27:59;;;;;;;8.15;5.45;;;;;;;10.98;63.83;97756.56;5028095;28;20021;-75
2021/04/03 10:30:24;;;;;;;6.22;4.50;;;;;;;10.66;63.67;97750.03;5028650;28;20052;-75
2021/04/03 10:32:50;;;;;;;7.50;5.30;;;;;;;10.99;66.09;97767.22;5029226;28;20499;-76
2021/04/03 10:35:15;;;;;;;4.93;4.18;;;;;;;11.49;62.71;97762.66;5028599;28;20044;-76
2021/04/03 10:37:41;;;;;;;6.95;5.00;;;;;;;11.43;62.58;97758.41;5028812;28;20394;-77
2021/04/03 10:40:06;;;;;;;8.77;5.00;;;;;;;10.99;63.59;97771.88;5028210;28;20209;-77
2021/04/03 10:42:32;;;;;;;7.07;4.35;;;;;;;11.29;61.63;97763.06;5028690;28;20399;-76
2021/04/03 10:44:57;;;;;;;8.30;4.97;;;;;;;11.23;62.43;97756.06;5027552;28;20482;-76
2021/04/03 10:47:23;;;;;;;6.38;4.85;;;;;;;11.11;62.91;97762.06;5028378;28;20489;-77
2021/04/03 10:49:48;;;;;;;7.65;5.55;;;;;;;11.13;63.77;97759.81;5027433;28;20072;-77
2021/04/03 10:52:13;;;;;;;13.00;8.38;;;;;;;10.99;63.39;97769.94;5025952;28;20534;-76
2021/04/03 10:54:39;;;;;;;7.00;5.55;;;;;;;11.04;63.31;97761.63;5026609;28;20025;-74
2021/04/03 10:57:05;;;;;;;8.20;4.80;;;;;;;11.07;61.98;97760.22;5027873;28;20075;-76
2021/04/03 10:59:31;;;;;;;6.30;4.55;;;;;;;10.80;62.80;97765.66;5027570;28;20414;-75
2021/04/03 11:01:56;;;;;;;6.22;5.10;;;;;;;10.57;65.01;97762.78;5028442;28;20021;-76
2021/04/03 11:04:22;;;;;;;6.57;4.72;;;;;;;10.19;70.70;97802.22;5028531;28;20029;-81
2021/04/03 11:06:47;;;;;;;7.82;5.53;;;;;;;9.63;76.01;97827.53;5027410;28;20440;-73
2021/04/03 11:09:13;;;;;;;6.60;3.65;;;;;;;8.55;78.37;97846.41;5027985;28;20033;-74
2021/04/03 11:11:38;;;;;;;4.68;3.30;;;;;;;7.62;81.62;97859.19;5028343;28;20111;-75
2021/04/03 11:14:04;;;;;;;3.90;3.10;;;;;;;7.66;82.57;97855.63;5028446;28;20032;-75
2021/04/03 11:16:30;;;;;;;6.15;3.72;;;;;;;7.38;85.63;97864.44;5026842;28;20121;-75
2021/04/03 11:18:56;;;;;;;4.40;2.97;;;;;;;7.12;89.54;97847.38;5027940;28;20025;-76
2021/04/03 11:21:21;;;;;;;5.78;4.00;;;;;;;7.38;88.68;97821.75;5027483;28;20067;-75
2021/04/03 11:23:48;;;;;;;5.80;4.38;;;;;;;7.27;90.61;97824.75;5027738;28;20062;-74
2021/04/03 11:26:14;;;;;;;4.30;2.83;;;;;;;7.06;90.19;97821.28;5028153;28;20025;-74
2021/04/03 11:28:39;;;;;;;5.75;4.13;;;;;;;7.13;91.36;97829.16;5027840;28;20051;-75
2021/04/03 11:31:05;;;;;;;8.63;4.53;;;;;;;7.27;92.62;97833.72;5027833;28;20037;-75
2021/04/03 11:33:30;;;;;;;4.53;3.40;;;;;;;7.52;94.46;97822.75;5027807;28;20017;-75
2021/04/03 11:35:55;;;;;;;6.93;4.45;;;;;;;7.89;97.08;97821.50;5028067;28;20387;-74
2021/04/03 11:38:21;;;;;;;8.15;5.50;;;;;;;8.18;98.50;97808.75;5027952;28;20025;-75